Time;durP1;ratioP1;P1;durP2;ratioP2;P2;SDS_P1;SDS_P2;PMS_P1;PMS_P2;Temp;Humidity;BMP_temperature;BMP_pressure;BME280_temperature;BME280_humidity;BME280_pressure;Samples;Min_cycle;Max_cycle;Signal;HPM_P1;HPM_P2
2021/12/07 00:01:09;;;;;;;;;4.75;2.25;;;;;8.49;72.95;101020.53;5016188;28;62703;-75
2021/12/07 00:03:35;;;;;;;;;3.50;1.00;;;;;8.49;73.04;101027.53;5015954;28;55561;-75
2021/12/07 00:06:01;;;;;;;;;2.33;2.00;;;;;8.54;73.12;101037.31;5016270;28;47198;-75
2021/12/07 00:08:28;;;;;;;;;4.75;1.00;;;;;8.54;72.86;101037.31;5016623;28;45430;-75
2021/12/07 00:10:53;;;;;;;;;6.25;1.00;;;;;8.52;73.14;101028.50;5017043;28;45290;-75
2021/12/07 00:13:19;;;;;;;;;2.75;2.75;;;;;8.51;73.07;101042.47;5016844;28;45634;-75
2021/12/07 00:15:45;;;;;;;;;9.25;1.25;;;;;8.49;72.98;101031.06;5016611;28;46328;-75
2021/12/07 00:18:10;;;;;;;;;6.00;2.75;;;;;8.56;73.11;101025.06;5016348;28;45423;-75
2021/12/07 00:20:36;;;;;;;;;5.75;2.00;;;;;8.60;73.13;101029.53;5016230;28;60543;-74
2021/12/07 00:23:05;;;;;;;;;4.33;1.00;;;;;8.65;73.39;101019.13;5016942;28;45274;-76
2021/12/07 00:25:30;;;;;;;;;2.00;2.00;;;;;8.72;73.00;101018.38;4999100;28;46604;-74
2021/12/07 00:27:55;;;;;;;;;4.00;1.00;;;;;8.76;72.67;101021.97;5016245;28;63695;-75
2021/12/07 00:30:26;;;;;;;;;3.00;1.00;;;;;8.65;72.38;100992.78;5015537;28;53703;-75
2021/12/07 00:33:07;;;;;;;;;3.00;2.00;;;;;8.84;72.49;101023.00;5017076;28;45334;-75
2021/12/07 00:35:35;;;;;;;;;3.00;2.00;;;;;8.84;72.30;101020.38;5016097;28;45849;-75
2021/12/07 00:38:07;;;;;;;;;1.00;1.00;;;;;8.85;71.87;101023.06;5016135;28;45353;-75
2021/12/07 00:40:33;;;;;;;;;2.67;1.00;;;;;8.89;72.12;101029.25;5016232;28;45420;-76
2021/12/07 00:42:58;;;;;;;;;6.67;1.00;;;;;8.90;71.84;101031.97;5016681;28;45551;-75
2021/12/07 00:45:25;;;;;;;;;1.67;1.67;;;;;8.77;72.25;101005.31;4998149;28;46682;-75
2021/12/07 00:47:51;;;;;;;;;4.33;1.33;;;;;8.91;71.80;101033.72;5016403;28;45247;-75
2021/12/07 00:50:17;;;;;;;;;0.33;0.00;;;;;8.77;71.79;101002.69;5016313;28;45439;-74
2021/12/07 00:52:42;;;;;;;;;0.33;0.33;;;;;8.90;71.73;101039.84;5016703;28;45278;-76
2021/12/07 00:55:14;;;;;;;;;2.67;1.00;;;;;8.76;71.93;101021.97;5016096;28;47678;-75
2021/12/07 00:57:39;;;;;;;;;4.33;1.00;;;;;8.85;71.68;101038.88;4998690;28;45508;-75
2021/12/07 01:00:06;;;;;;;;;0.33;0.33;;;;;8.84;71.09;101047.63;5015529;28;62654;-75
2021/12/07 01:02:31;;;;;;;;;2.33;1.00;;;;;8.86;71.52;101061.69;5016146;28;45507;-75
2021/12/07 01:05:03;;;;;;;;;2.00;1.00;;;;;8.84;71.07;101052.91;5015411;28;64411;-75
2021/12/07 01:07:55;;;;;;;;;3.00;1.00;;;;;8.84;71.26;101058.16;5015661;28;45507;-75
2021/12/07 01:26:51;;;;;;;;;0.67;0.00;;;;;8.60;70.84;101036.56;5019608;28;45268;-75
2021/12/07 01:29:20;;;;;;;;;1.00;1.00;;;;;8.56;70.57;101039.97;5019327;28;45355;-75
2021/12/07 01:48:09;;;;;;;;;3.00;1.00;;;;;8.41;70.77;101035.22;5019036;28;45244;-76
2021/12/07 01:50:48;;;;;;;;;0.00;0.00;;;;;8.27;70.58;101010.34;5019035;28;45412;-75
2021/12/07 01:57:47;;;;;;;;;1.67;0.00;;;;;8.36;70.88;101040.41;5019089;28;45407;-75
2021/12/07 02:01:27;;;;;;;;;2.00;0.00;;;;;8.30;70.75;101049.84;5018541;28;45315;-75
2021/12/07 02:03:52;;;;;;;;;1.00;0.33;;;;;8.09;70.83;101021.28;5017906;28;58338;-75
2021/12/07 02:06:18;;;;;;;;;0.00;0.00;;;;;8.34;70.94;101055.22;5001289;28;45465;-75
2021/12/07 02:08:43;;;;;;;;;0.67;0.00;;;;;8.36;70.74;101056.22;5018606;28;47718;-75
2021/12/07 02:11:09;;;;;;;;;4.50;0.00;;;;;8.41;70.77;101056.28;5018532;28;46195;-75
2021/12/07 02:16:00;;;;;;;;;1.00;1.00;;;;;8.38;70.38;101051.84;5018679;28;45422;-75
2021/12/07 02:18:25;;;;;;;;;0.00;0.00;;;;;8.21;70.53;101020.72;4986029;28;58364;-75
2021/12/07 02:20:51;;;;;;;;;0.00;0.00;;;;;8.23;70.54;101034.78;5016858;28;45881;-75
2021/12/07 02:23:16;;;;;;;;;0.00;0.00;;;;;8.22;70.45;101043.53;5017018;28;63150;-75
2021/12/07 02:25:42;;;;;;;;;1.00;0.00;;;;;8.27;70.46;101050.69;5018214;28;45568;-76
2021/12/07 02:28:13;;;;;;;;;1.00;0.00;;;;;8.26;70.46;101062.06;5000896;28;47741;-75
2021/12/07 02:30:38;;;;;;;;;0.00;0.00;;;;;8.21;70.46;101057.53;5018221;28;45355;-77
2021/12/07 02:33:03;;;;;;;;;5.00;0.00;;;;;8.13;70.43;101042.44;5018352;28;45395;-76
2021/12/07 02:35:29;;;;;;;;;0.33;0.33;;;;;8.16;70.61;101053.91;5017710;28;56240;-75
2021/12/07 02:37:55;;;;;;;;;0.00;0.00;;;;;7.98;70.42;101033.28;5018172;28;47905;-75
2021/12/07 02:40:20;;;;;;;;;0.00;0.00;;;;;7.94;70.01;101036.72;5018481;28;45380;-76
2021/12/07 02:42:46;;;;;;;;;1.00;1.00;;;;;8.08;70.58;101058.97;5028943;28;59067;-75
2021/12/07 02:45:11;;;;;;;;;3.00;0.00;;;;;7.90;70.43;101027.84;5029260;28;46713;-75
2021/12/07 02:47:37;;;;;;;;;1.00;0.00;;;;;8.01;70.42;101049.16;5021998;28;70132;-76
2021/12/07 02:50:06;;;;;;;;;5.00;1.00;;;;;7.98;70.50;101049.97;5017925;28;45323;-76
2021/12/07 02:52:31;;;;;;;;;0.00;0.00;;;;;8.00;70.64;101053.53;5018398;28;45403;-75
2021/12/07 02:54:56;;;;;;;;;0.00;0.00;;;;;7.97;70.45;101049.94;5017865;28;45647;-76
2021/12/07 02:57:22;;;;;;;;;0.67;0.00;;;;;7.80;70.62;101017.97;5017995;28;45827;-76
2021/12/07 02:59:54;;;;;;;;;1.00;1.00;;;;;7.92;70.59;101049.81;5018036;28;45221;-76
2021/12/07 03:02:21;;;;;;;;;2.00;0.00;;;;;7.90;70.50;101048.88;5017947;28;45424;-75
2021/12/07 03:04:58;;;;;;;;;1.00;0.00;;;;;7.89;70.64;101055.00;5017779;28;45625;-75
2021/12/07 03:07:45;;;;;;;;;0.00;0.00;;;;;7.88;70.55;101055.84;5017615;28;46601;-76
2021/12/07 03:26:15;;;;;;;;;5.00;1.00;;;;;7.94;71.01;101050.75;5016291;28;45269;-75
2021/12/07 03:28:49;;;;;;;;;0.50;0.50;;;;;8.08;70.98;101067.75;5000259;28;47595;-75
2021/12/07 03:31:14;;;;;;;;;8.00;1.00;;;;;8.14;70.90;101078.41;5016680;28;45576;-75
2021/12/07 03:33:40;;;;;;;;;2.00;1.00;;;;;8.15;70.75;101081.97;5017676;28;45256;-75
2021/12/07 03:36:06;;;;;;;;;0.67;0.67;;;;;8.04;70.94;101067.63;5016533;28;58188;-75
2021/12/07 03:38:32;;;;;;;;;3.00;0.33;;;;;7.73;70.73;101002.91;5017193;28;46540;-75
2021/12/07 03:40:57;;;;;;;;;1.00;1.00;;;;;8.18;70.61;101073.25;5017082;28;45451;-75
2021/12/07 03:43:22;;;;;;;;;2.67;1.00;;;;;8.02;70.28;101037.78;5016796;28;58045;-74
2021/12/07 03:45:48;;;;;;;;;2.00;1.00;;;;;8.02;70.60;101040.41;5016868;28;45455;-76
2021/12/07 03:48:13;;;;;;;;;0.00;0.00;;;;;8.13;70.81;101074.00;4999112;28;46351;-75
2021/12/07 03:50:39;;;;;;;;;1.50;1.00;;;;;8.13;70.51;101083.63;5017012;28;45642;-75
2021/12/07 03:53:04;;;;;;;;;0.25;0.25;;;;;8.09;70.53;101072.16;4999917;28;45366;-75
2021/12/07 03:55:30;;;;;;;;;1.00;0.00;;;;;8.05;70.71;101072.06;5017036;28;45554;-75
2021/12/07 03:57:55;;;;;;;;;0.00;0.00;;;;;8.01;70.42;101055.31;5016734;28;46565;-76
2021/12/07 04:00:22;;;;;;;;;2.00;0.00;;;;;8.01;70.62;101055.31;5016661;28;45513;-75
2021/12/07 04:02:50;;;;;;;;;2.00;1.00;;;;;7.98;70.74;101057.84;5016985;28;45246;-75
2021/12/07 04:05:18;;;;;;;;;0.00;0.00;;;;;7.97;70.45;101057.81;5016824;28;45642;-75
2021/12/07 04:07:43;;;;;;;;;2.00;0.33;;;;;7.88;70.55;101043.59;5016512;28;46389;-75
2021/12/07 04:10:10;;;;;;;;;1.33;0.67;;;;;7.94;70.55;101040.25;5016947;28;45397;-75
2021/12/07 04:12:36;;;;;;;;;3.00;0.33;;;;;7.92;70.51;101051.56;5016678;28;45510;-75
2021/12/07 04:15:01;;;;;;;;;3.00;0.67;;;;;7.84;70.61;101051.38;5016705;28;47124;-75
2021/12/07 04:17:27;;;;;;;;;5.00;0.00;;;;;7.90;70.76;101067.28;5016631;28;47401;-74
2021/12/07 04:19:52;;;;;;;;;1.00;0.00;;;;;7.88;70.64;101068.97;5016187;28;51868;-75
2021/12/07 04:22:18;;;;;;;;;2.00;0.00;;;;;7.89;70.60;101062.91;5016138;28;58972;-75
2021/12/07 04:24:43;;;;;;;;;0.00;0.00;;;;;7.89;70.58;101062.91;5016031;28;55788;-75
2021/12/07 04:27:08;;;;;;;;;2.00;0.00;;;;;7.88;70.60;101062.00;4998797;28;46443;-75
2021/12/07 04:29:34;;;;;;;;;3.00;0.33;;;;;7.84;70.49;101046.13;5016155;28;45348;-75
2021/12/07 04:31:59;;;;;;;;;2.00;0.33;;;;;7.57;70.80;101007.75;5016233;28;60801;-75
2021/12/07 04:34:24;;;;;;;;;0.00;0.00;;;;;7.85;70.60;101061.91;5016230;28;54437;-74
2021/12/07 04:36:50;;;;;;;;;1.00;1.00;;;;;7.65;70.68;101026.34;5015772;28;60455;-74
2021/12/07 04:39:15;;;;;;;;;2.00;0.00;;;;;7.84;70.66;101061.88;5016585;28;45779;-75
2021/12/07 04:41:43;;;;;;;;;2.00;0.00;;;;;7.80;70.73;101050.38;5016054;28;45309;-75
2021/12/07 04:44:09;;;;;;;;;0.75;0.00;;;;;7.82;70.62;101064.44;5016363;28;45439;-75
2021/12/07 04:46:42;;;;;;;;;0.67;0.00;;;;;7.80;70.61;101055.66;5018825;28;56220;-75
2021/12/07 04:59:58;;;;;;;;;1.00;0.00;;;;;7.67;70.71;101039.50;5019663;28;45230;-75
2021/12/07 05:02:23;;;;;;;;;1.00;1.00;;;;;7.76;70.54;101051.16;5019733;28;45226;-75
2021/12/07 05:04:49;;;;;;;;;0.33;0.00;;;;;7.60;70.69;101018.31;5019627;28;45446;-76
2021/12/07 05:07:26;;;;;;;;;1.67;0.67;;;;;7.60;70.42;101013.06;5019281;28;46450;-76
2021/12/07 05:10:11;;;;;;;;;0.00;0.00;;;;;7.76;70.62;101058.16;5019522;28;45428;-75
2021/12/07 05:13:08;;;;;;;;;3.00;0.00;;;;;7.75;70.56;101052.00;5019667;28;45467;-76
2021/12/07 05:24:06;;;;;;;;;2.75;1.00;;;;;7.74;70.47;101051.97;5002501;28;45333;-75
2021/12/07 05:37:43;;;;;;;;;2.00;0.75;;;;;7.72;70.36;101057.16;5006485;28;45412;-73
2021/12/07 05:40:10;;;;;;;;;3.00;0.00;;;;;7.66;70.43;101067.53;5020623;28;45682;-72
2021/12/07 05:42:39;;;;;;;;;6.25;0.50;;;;;7.51;70.64;101038.22;5019801;28;45404;-75
2021/12/07 05:45:05;;;;;;;;;0.00;0.00;;;;;7.65;70.47;101067.50;5019766;28;45327;-74
2021/12/07 05:47:31;;;;;;;;;0.50;0.00;;;;;7.65;70.56;101062.25;5018870;28;45265;-73
2021/12/07 05:49:56;;;;;;;;;2.25;1.75;;;;;7.64;70.50;101068.34;5018201;28;66492;-75
2021/12/07 05:52:22;;;;;;;;;0.75;0.75;;;;;7.57;70.56;101052.44;5025040;28;66917;-75
2021/12/07 05:54:47;;;;;;;;;2.25;1.00;;;;;7.63;70.87;101077.09;5019170;28;45286;-73
2021/12/07 05:57:13;;;;;;;;;2.00;0.75;;;;;7.63;70.64;101074.47;4982787;28;51977;-74
2021/12/07 05:59:39;;;;;;;;;2.75;2.00;;;;;7.32;70.63;101021.97;5022627;28;46474;-73
2021/12/07 06:02:04;;;;;;;;;5.50;1.00;;;;;7.61;70.65;101080.53;5018407;28;45506;-73
2021/12/07 06:04:30;;;;;;;;;2.00;1.00;;;;;7.61;70.95;101071.78;5018893;28;45308;-73
2021/12/07 06:06:57;;;;;;;;;3.00;1.75;;;;;7.61;70.61;101069.16;5018531;28;45512;-73
2021/12/07 06:09:22;;;;;;;;;7.00;2.00;;;;;7.63;70.60;101071.84;5018640;28;46952;-73
2021/12/07 06:11:50;;;;;;;;;1.00;1.00;;;;;7.61;70.87;101062.16;5017557;28;62617;-73
2021/12/07 06:14:18;;;;;;;;;1.00;1.00;;;;;7.28;70.58;101016.59;5017493;28;45277;-74
2021/12/07 06:16:45;;;;;;;;;3.50;0.75;;;;;7.65;70.55;101062.25;5017539;28;45409;-73
2021/12/07 06:19:10;;;;;;;;;3.25;1.25;;;;;7.66;70.70;101045.63;5019605;28;47362;-74
2021/12/07 06:21:36;;;;;;;;;1.00;1.00;;;;;7.69;70.50;101045.72;5010201;28;60327;-75
2021/12/07 06:24:01;;;;;;;;;3.75;2.75;;;;;7.69;70.72;101043.97;5010866;28;62909;-74
2021/12/07 06:26:26;;;;;;;;;5.75;2.00;;;;;7.67;70.53;101035.16;5016415;28;54943;-73
2021/12/07 06:28:52;;;;;;;;;2.75;1.25;;;;;7.65;70.27;101021.09;5016795;28;63248;-73
2021/12/07 06:31:17;;;;;;;;;2.25;1.50;;;;;7.59;70.33;101020.94;5018646;28;45541;-73
2021/12/07 06:33:42;;;;;;;;;3.50;1.25;;;;;7.52;70.30;101014.63;5016503;28;47910;-73
2021/12/07 06:36:08;;;;;;;;;3.50;1.75;;;;;7.49;70.49;101003.16;5016821;28;45581;-74
2021/12/07 06:38:33;;;;;;;;;5.50;2.25;;;;;7.45;70.46;101003.91;5017145;28;46526;-73
2021/12/07 06:41:00;;;;;;;;;3.00;1.00;;;;;7.29;70.56;100998.25;5019124;28;45501;-73
2021/12/07 06:43:25;;;;;;;;;2.75;2.00;;;;;7.37;70.37;101011.59;5019947;28;45486;-73
2021/12/07 06:45:51;;;;;;;;;3.00;1.50;;;;;7.30;70.45;101015.81;5017647;28;45618;-73
2021/12/07 06:48:16;;;;;;;;;4.50;4.50;;;;;7.12;70.36;101014.38;5016129;28;59461;-73
2021/12/07 06:50:41;;;;;;;;;2.75;2.75;;;;;6.94;70.52;101014.78;5016416;28;57063;-73
2021/12/07 06:53:07;;;;;;;;;10.50;3.00;;;;;6.59;70.78;100950.78;5016080;28;46877;-73
2021/12/07 06:55:32;;;;;;;;;8.00;5.00;;;;;6.86;70.80;100995.28;5018636;28;59701;-73
2021/12/07 06:57:58;;;;;;;;;9.00;5.00;;;;;6.85;71.04;100988.25;5023170;28;64414;-74
2021/12/07 07:00:23;;;;;;;;;5.00;5.00;;;;;6.83;71.11;100986.47;5021214;28;58821;-73
2021/12/07 07:02:49;;;;;;;;;7.75;5.50;;;;;6.86;71.27;100982.16;5023965;28;45562;-74
2021/12/07 07:05:14;;;;;;;;;7.25;4.50;;;;;6.87;71.50;100978.69;5023209;28;45355;-74
2021/12/07 07:07:39;;;;;;;;;6.00;5.25;;;;;6.86;71.39;100969.91;5017502;28;64968;-75
2021/12/07 07:10:06;;;;;;;;;10.25;7.50;;;;;6.79;71.67;100952.22;5018804;28;45500;-75
2021/12/07 07:12:31;;;;;;;;;9.00;6.00;;;;;6.92;71.68;100967.47;4997960;28;45480;-73
2021/12/07 07:14:56;;;;;;;;;11.75;9.50;;;;;6.95;71.74;100966.66;5016272;28;53459;-73
2021/12/07 07:17:22;;;;;;;;;13.75;9.00;;;;;6.97;71.61;100967.59;5010433;28;63045;-73
2021/12/07 07:19:47;;;;;;;;;12.50;6.00;;;;;6.98;71.65;100956.28;5011304;28;61118;-73
2021/12/07 07:22:12;;;;;;;;;4.75;1.25;;;;;7.00;71.77;100968.56;5015806;28;60325;-73
2021/12/07 07:24:38;;;;;;;;;11.00;7.00;;;;;7.02;71.84;100964.25;5016266;28;45685;-72
2021/12/07 07:27:04;;;;;;;;;10.00;6.75;;;;;7.03;71.77;100947.66;5002869;28;45645;-73
2021/12/07 07:29:29;;;;;;;;;5.75;5.75;;;;;7.05;71.78;100945.09;5026561;28;45469;-72
2021/12/07 07:31:55;;;;;;;;;8.50;6.00;;;;;7.06;72.04;100933.72;5012897;28;61250;-73
2021/12/07 07:34:20;;;;;;;;;10.50;5.25;;;;;7.10;71.75;100935.59;5017530;28;45498;-72
2021/12/07 07:36:45;;;;;;;;;9.75;5.75;;;;;7.12;71.89;100935.63;5019705;28;65003;-72
2021/12/07 07:39:11;;;;;;;;;6.25;6.00;;;;;7.11;71.96;100918.97;5018264;28;45580;-73
2021/12/07 07:41:36;;;;;;;;;15.50;6.25;;;;;7.12;71.83;100912.88;5015436;28;45277;-73
2021/12/07 07:44:02;;;;;;;;;10.75;8.25;;;;;7.15;71.72;100920.84;5016743;28;52391;-74
2021/12/07 07:46:28;;;;;;;;;11.50;8.00;;;;;7.01;71.71;100896.84;5014113;28;46532;-73
2021/12/07 07:48:53;;;;;;;;;12.25;9.75;;;;;7.17;71.77;100910.38;5012438;28;45515;-74
2021/12/07 07:51:18;;;;;;;;;9.50;8.50;;;;;7.18;72.02;100905.16;5020673;28;59844;-74
2021/12/07 07:53:44;;;;;;;;;9.25;7.00;;;;;7.18;71.85;100907.78;5019270;28;58707;-74
2021/12/07 07:56:09;;;;;;;;;9.25;7.50;;;;;7.20;71.81;100913.97;5017098;28;46511;-74
2021/12/07 07:58:35;;;;;;;;;11.00;8.75;;;;;7.20;71.93;100908.72;5015321;28;45473;-73
2021/12/07 08:01:00;;;;;;;;;15.50;7.00;;;;;7.09;71.87;100866.44;5016561;28;60343;-74
2021/12/07 08:03:26;;;;;;;;;14.50;10.00;;;;;7.19;71.93;100874.53;5018552;28;57317;-74
2021/12/07 08:05:51;;;;;;;;;7.50;7.50;;;;;7.27;72.03;100883.50;5020570;28;69107;-73
2021/12/07 08:08:17;;;;;;;;;17.25;10.00;;;;;7.29;72.11;100887.94;5016620;28;45395;-74
2021/12/07 08:10:42;;;;;;;;;15.00;10.25;;;;;7.32;71.90;100879.25;5002755;28;45527;-74
2021/12/07 08:13:08;;;;;;;;;15.00;7.75;;;;;7.29;71.73;100879.16;5020323;28;45582;-73
2021/12/07 08:15:41;;;;;;;;;12.25;10.00;;;;;7.36;71.84;100870.59;5016841;28;50208;-74
2021/12/07 08:18:06;;;;;;;;;18.75;13.75;;;;;7.39;71.92;100865.41;5017669;28;45539;-74
2021/12/07 08:20:32;;;;;;;;;17.25;12.75;;;;;7.42;71.80;100870.75;5014322;28;45357;-73
2021/12/07 08:22:58;;;;;;;;;15.50;14.50;;;;;7.47;71.79;100863.00;5011299;28;45611;-75
2021/12/07 08:25:23;;;;;;;;;23.00;16.25;;;;;7.48;71.53;100855.13;5020282;28;46753;-73
2021/12/07 08:27:49;;;;;;;;;17.50;12.50;;;;;7.51;71.71;100843.78;5015719;28;45397;-74
2021/12/07 08:30:14;;;;;;;;;23.25;17.75;;;;;7.40;71.76;100817.28;5020111;28;64158;-73
2021/12/07 08:32:45;;;;;;;;;23.00;18.75;;;;;7.63;71.52;100841.47;5017787;28;45588;-73
2021/12/07 08:35:14;;;;;;;;;19.00;15.50;;;;;7.70;71.59;100853.88;5017963;28;46481;-73
2021/12/07 08:37:40;;;;;;;;;21.25;16.25;;;;;7.73;71.52;100832.94;5015522;28;45462;-73
2021/12/07 08:40:06;;;;;;;;;26.75;19.25;;;;;7.80;71.45;100834.84;5020383;28;45508;-73
2021/12/07 08:42:31;;;;;;;;;26.25;16.25;;;;;7.84;71.27;100838.44;5019959;28;45500;-74
2021/12/07 08:44:57;;;;;;;;;19.75;15.75;;;;;7.87;71.18;100844.63;5022388;28;69527;-73
2021/12/07 08:47:22;;;;;;;;;16.25;16.00;;;;;7.91;71.21;100840.34;5113941;23;63327;-73
2021/12/07 08:49:47;;;;;;;;;31.75;22.25;;;;;7.78;71.00;100810.28;4991829;28;47131;-73
2021/12/07 08:52:13;;;;;;;;;24.25;21.75;;;;;7.93;70.68;100808.81;4990379;28;54638;-72
2021/12/07 08:59:52;;;;;;;;;32.75;25.50;;;;;7.94;70.89;100808.88;4993795;28;45425;-74
2021/12/07 09:02:19;;;;;;;;;21.50;17.50;;;;;7.83;70.80;100777.09;4984069;28;45484;-73
2021/12/07 09:04:44;;;;;;;;;20.25;19.25;;;;;7.97;70.91;100782.63;4978533;28;46308;-73
2021/12/07 09:07:10;;;;;;;;;19.50;18.00;;;;;7.96;70.97;100772.09;4993761;28;45301;-72
2021/12/07 09:09:36;;;;;;;;;22.25;20.75;;;;;7.96;70.70;100758.94;4986142;28;59996;-72
2021/12/07 09:12:04;;;;;;;;;17.00;15.25;;;;;8.01;70.62;100749.41;4984287;28;45642;-72
2021/12/07 09:14:31;;;;;;;;;18.50;15.00;;;;;8.01;70.51;100746.78;4998110;28;46474;-72
2021/12/07 09:16:56;;;;;;;;;22.25;14.50;;;;;8.04;70.57;100755.63;4993445;28;45469;-72
2021/12/07 09:19:22;;;;;;;;;18.25;17.00;;;;;8.05;70.46;100751.25;4992117;28;45454;-72
2021/12/07 09:21:47;;;;;;;;;20.00;17.50;;;;;8.08;70.22;100739.03;4988864;28;45502;-73
2021/12/07 09:24:13;;;;;;;;;18.50;16.75;;;;;8.13;70.50;100724.22;4990617;28;45538;-73
2021/12/07 09:26:38;;;;;;;;;25.00;20.50;;;;;8.16;70.14;100718.16;4993427;28;58784;-73
2021/12/07 09:29:04;;;;;;;;;14.50;11.25;;;;;8.18;70.11;100728.69;4993043;28;45406;-72
2021/12/07 09:31:29;;;;;;;;;23.00;20.00;;;;;8.17;70.21;100725.19;4994332;28;45555;-72
2021/12/07 09:33:55;;;;;;;;;24.50;19.50;;;;;8.16;70.07;100741.81;4986777;28;47547;-73
2021/12/07 09:36:21;;;;;;;;;15.00;12.25;;;;;8.17;70.21;100750.59;4995182;28;45323;-73
2021/12/07 09:38:46;;;;;;;;;25.75;22.25;;;;;8.00;70.31;100716.09;4998279;28;45349;-75
2021/12/07 09:41:12;;;;;;;;;27.75;21.75;;;;;8.03;70.46;100708.25;4990883;28;45332;-72
2021/12/07 09:43:37;;;;;;;;;28.50;20.50;;;;;8.19;70.21;100726.09;4994566;28;46542;-74
2021/12/07 09:46:06;;;;;;;;;20.50;16.75;;;;;8.23;70.12;100746.34;4993312;28;58823;-72
2021/12/07 09:48:32;;;;;;;;;21.00;16.00;;;;;8.23;70.19;100740.19;4996108;28;45150;-74
2021/12/07 09:50:57;;;;;;;;;22.50;16.75;;;;;8.24;69.86;100732.31;5001188;28;45364;-71
2021/12/07 09:53:23;;;;;;;;;23.75;16.50;;;;;8.25;69.91;100717.41;5015638;28;46224;-74
2021/12/07 09:55:49;;;;;;;;;16.25;14.25;;;;;8.25;69.89;100717.41;5016930;28;45515;-72
2021/12/07 09:58:14;;;;;;;;;16.25;11.75;;;;;8.09;70.16;100695.22;5000838;28;45412;-72
2021/12/07 10:00:40;;;;;;;;;14.25;10.50;;;;;8.23;69.90;100727.03;5000953;28;45467;-72
2021/12/07 10:03:05;;;;;;;;;11.25;9.00;;;;;8.22;69.98;100744.56;5014668;28;45424;-72
2021/12/07 10:05:34;;;;;;;;;11.50;10.00;;;;;8.04;69.48;100718.81;5016826;28;68017;-71
2021/12/07 10:07:59;;;;;;;;;14.50;10.25;;;;;8.18;69.89;100741.84;5016298;28;45432;-72
2021/12/07 10:10:27;;;;;;;;;19.25;15.75;;;;;8.19;69.70;100738.34;5016819;28;46533;-72
2021/12/07 10:12:52;;;;;;;;;16.00;13.50;;;;;8.18;69.84;100713.78;5011126;28;46870;-72
2021/12/07 10:15:18;;;;;;;;;15.50;15.50;;;;;8.18;69.73;100705.91;5016794;28;60378;-70
2021/12/07 10:17:43;;;;;;;;;16.00;14.75;;;;;8.04;69.88;100670.56;5020803;28;45551;-72
2021/12/07 10:20:33;;;;;;;;;11.75;11.75;;;;;8.22;70.07;100685.81;5017045;28;45348;-71
2021/12/07 10:23:15;;;;;;;;;14.25;12.00;;;;;8.21;70.05;100669.16;5017447;28;47089;-73
2021/12/07 10:25:41;;;;;;;;;18.25;13.50;;;;;8.07;70.08;100624.19;5012996;28;45567;-71
2021/12/07 10:28:27;;;;;;;;;23.00;17.00;;;;;8.24;70.38;100642.88;5000784;28;45495;-76
2021/12/07 10:30:52;;;;;;;;;19.00;13.00;;;;;8.31;70.22;100649.13;5014745;28;45503;-73
2021/12/07 10:33:34;;;;;;;;;19.25;15.50;;;;;8.33;70.27;100639.53;5013011;28;67102;-73
2021/12/07 10:36:32;;;;;;;;;15.75;12.00;;;;;8.40;70.23;100637.06;5014325;28;45382;-72
2021/12/07 10:39:00;;;;;;;;;23.50;18.75;;;;;8.45;70.49;100623.09;5014264;28;45433;-73
2021/12/07 10:41:26;;;;;;;;;22.00;16.50;;;;;8.49;70.12;100604.75;5015460;28;45891;-73
2021/12/07 10:44:05;;;;;;;;;16.50;15.50;;;;;8.26;70.57;100551.75;5004374;28;47417;-73
2021/12/07 10:46:32;;;;;;;;;18.00;16.00;;;;;8.58;70.04;100581.22;5016596;28;45507;-73
2021/12/07 10:49:13;;;;;;;;;19.50;15.25;;;;;8.66;70.13;100587.47;5016725;28;45353;-72
2021/12/07 10:51:39;;;;;;;;;15.00;12.75;;;;;8.68;69.84;100560.28;5014933;28;45570;-73
2021/12/07 10:54:04;;;;;;;;;15.50;13.75;;;;;8.66;70.02;100557.66;5015878;28;46580;-74
2021/12/07 10:56:31;;;;;;;;;10.75;10.50;;;;;8.69;70.07;100530.50;4992846;28;45283;-75
2021/12/07 10:59:08;;;;;;;;;17.50;15.00;;;;;8.76;70.01;100537.59;5011104;28;45388;-76
2021/12/07 11:01:34;;;;;;;;;18.25;13.25;;;;;8.78;69.85;100542.00;5009786;28;45427;-73
2021/12/07 11:04:23;;;;;;;;;12.00;8.50;;;;;8.79;69.98;100530.66;5011647;28;45549;-73
2021/12/07 11:07:24;;;;;;;;;11.00;9.50;;;;;8.81;69.92;100507.84;5010539;28;45330;-71
2021/12/07 11:10:18;;;;;;;;;18.25;11.50;;;;;8.80;70.38;100487.66;5014434;28;45638;-73
2021/12/07 11:15:34;;;;;;;;;15.75;14.50;;;;;8.86;70.72;100461.41;5010062;28;45875;-72
2021/12/07 11:18:07;;;;;;;;;16.25;15.25;;;;;8.63;70.52;100403.22;5022842;28;46720;-73
2021/12/07 11:20:33;;;;;;;;;15.25;15.25;;;;;8.95;70.41;100442.19;5016707;28;45386;-72
2021/12/07 11:23:07;;;;;;;;;16.25;13.25;;;;;9.01;70.30;100434.38;5015578;28;45453;-73
2021/12/07 11:31:51;;;;;;;;;15.00;12.25;;;;;9.14;70.36;100406.38;4961101;28;45575;-73
2021/12/07 11:34:21;;;;;;;;;12.50;10.00;;;;;9.02;70.37;100367.66;5003137;28;45657;-73
2021/12/07 11:36:52;;;;;;;;;16.50;12.00;;;;;9.20;70.64;100377.47;5015411;28;46146;-73
2021/12/07 11:39:25;;;;;;;;;13.50;11.75;;;;;9.25;70.44;100369.63;5012985;28;45382;-73
2021/12/07 11:42:02;;;;;;;;;16.75;12.75;;;;;9.29;70.11;100353.84;4995754;28;46224;-74
2021/12/07 11:44:29;;;;;;;;;12.25;11.00;;;;;9.37;70.29;100341.59;5013149;28;45508;-73
2021/12/07 11:46:55;;;;;;;;;15.00;8.50;;;;;9.41;70.19;100334.63;5017347;28;46592;-73
2021/12/07 11:49:23;;;;;;;;;12.00;8.50;;;;;9.25;69.53;100304.63;5015181;28;45923;-73
2021/12/07 11:51:51;;;;;;;;;14.75;8.50;;;;;9.29;69.83;100297.66;5019693;28;45282;-74
2021/12/07 11:54:17;;;;;;;;;10.33;8.33;;;;;9.33;69.79;100310.88;5015370;28;45341;-73
2021/12/07 11:56:43;;;;;;;;;14.00;8.67;;;;;9.31;69.86;100285.34;4999232;28;45440;-73
2021/12/07 11:59:08;;;;;;;;;12.00;11.00;;;;;9.37;70.05;100283.63;5017041;28;45282;-73
2021/12/07 12:01:34;;;;;;;;;11.25;8.25;;;;;9.51;69.86;100283.75;5016788;28;45913;-73
2021/12/07 12:04:00;;;;;;;;;11.00;7.33;;;;;9.54;70.06;100285.53;5016819;28;45241;-74
2021/12/07 12:06:25;;;;;;;;;14.00;8.00;;;;;9.45;69.67;100255.59;5016692;28;46128;-73
2021/12/07 12:08:51;;;;;;;;;10.00;6.33;;;;;9.55;69.78;100263.56;5016683;28;45174;-73
2021/12/07 12:11:16;;;;;;;;;12.67;6.00;;;;;9.55;69.79;100263.56;5016670;28;45723;-73
2021/12/07 12:14:11;;;;;;;;;13.33;6.33;;;;;9.58;69.95;100255.66;4997416;28;45454;-73
2021/12/07 12:17:03;;;;;;;;;12.00;7.33;;;;;9.61;69.66;100245.16;4997084;28;46652;-74
2021/12/07 12:19:31;;;;;;;;;7.33;6.33;;;;;9.63;69.90;100252.19;4970704;28;45271;-73
2021/12/07 12:22:00;;;;;;;;;9.33;8.00;;;;;9.62;69.64;100239.88;4979424;28;45528;-73
2021/12/07 12:24:48;;;;;;;;;7.00;6.00;;;;;9.65;69.54;100217.94;4990920;28;45451;-73
2021/12/07 12:27:14;;;;;;;;;9.67;7.67;;;;;9.63;69.69;100210.00;5016309;28;46603;-73
2021/12/07 12:29:40;;;;;;;;;7.33;7.00;;;;;9.66;69.78;100201.25;5016373;28;45378;-73
2021/12/07 12:32:06;;;;;;;;;8.67;5.67;;;;;9.52;69.72;100158.13;5016218;28;45503;-73
2021/12/07 12:34:33;;;;;;;;;9.33;6.67;;;;;9.69;69.68;100180.16;5017060;28;45417;-73
2021/12/07 12:37:09;;;;;;;;;8.67;6.67;;;;;9.68;69.82;100162.59;5016395;28;46440;-73
2021/12/07 12:39:43;;;;;;;;;10.33;7.67;;;;;9.71;69.51;100155.59;5016458;28;45293;-73
2021/12/07 12:42:08;;;;;;;;;7.33;6.00;;;;;9.59;69.36;100116.00;5016025;28;45271;-73
2021/12/07 12:44:35;;;;;;;;;16.25;8.00;;;;;9.73;69.54;100134.50;5016713;28;45409;-73
2021/12/07 12:47:01;;;;;;;;;8.00;7.00;;;;;9.73;69.54;100137.13;5016560;28;46539;-73
2021/12/07 12:49:40;;;;;;;;;11.67;6.00;;;;;9.76;69.55;100120.44;5014105;28;64415;-73
2021/12/07 12:52:06;;;;;;;;;7.00;4.00;;;;;9.75;69.56;100090.56;5015070;28;45466;-73
2021/12/07 12:54:45;;;;;;;;;8.67;5.33;;;;;9.66;69.17;100056.28;5014971;28;45315;-73
2021/12/07 12:57:20;;;;;;;;;8.00;6.00;;;;;9.79;69.52;100071.22;5013439;28;46606;-73
2021/12/07 12:59:46;;;;;;;;;12.67;7.67;;;;;9.64;69.12;100058.91;5013624;28;66537;-73
2021/12/07 13:02:11;;;;;;;;;12.00;6.00;;;;;9.81;69.47;100055.44;5009882;28;45460;-73
2021/12/07 13:04:37;;;;;;;;;8.33;7.00;;;;;9.72;69.35;100029.94;5014101;28;45368;-73
2021/12/07 13:09:43;;;;;;;;;7.00;3.00;;;;;9.82;69.28;100067.72;5016077;28;45368;-73
2021/12/07 13:12:25;;;;;;;;;5.33;4.00;;;;;9.76;69.32;100036.97;5005840;28;45254;-73
2021/12/07 13:15:06;;;;;;;;;7.33;3.33;;;;;9.82;69.35;100034.34;5012499;28;45523;-74